Terminal Aerodrome Forecast
Issued by NWS

Home | Current Version | Previous Version | Text Only | Print | Product List | Glossary Off
Versions: 1 2 3 4 5 6 7 8 9 10 11 12 13 14 15 16 17 18 19 20 21 22 23 24 25 26 27 28 29 30 31 32 33 34 35 36

000
FTUS43 KLOT 292300
TAFORD
TAF
KORD 292325Z 3000/0106 03014G21KT P6SM BKN008
      TEMPO 3003/3007 5SM -RA BR
     FM300900 03011KT 6SM BR SCT008 OVC010
     FM301400 35007KT P6SM BKN015
     FM302100 06009KT P6SM BKN018
     FM010300 08006KT P6SM BKN015=

USA.gov is the U.S. government's official web portal to all federal, state and local government web resources and services.